createdAt,value
2019-04-16T00:01:01.295Z,6.40
2019-04-16T00:04:24.959Z,6.30
2019-04-16T00:07:32.473Z,6.40
2019-04-16T00:10:52.778Z,6.30
2019-04-16T00:13:57.952Z,6.40
2019-04-16T00:17:01.386Z,6.30
2019-04-16T00:20:06.881Z,6.30
2019-04-16T00:23:18.290Z,6.20
2019-04-16T00:26:26.506Z,6.30
2019-04-16T00:29:26.923Z,6.20
2019-04-16T00:32:31.052Z,6.20
2019-04-16T00:35:34.472Z,6.10
2019-04-16T00:38:40.925Z,6.10
2019-04-16T00:41:43.104Z,6.10
2019-04-16T00:44:46.565Z,6.10
2019-04-16T00:47:51.334Z,6.00
2019-04-16T00:50:55.199Z,6.00
2019-04-16T00:53:58.887Z,6.00
2019-04-16T00:57:02.437Z,6.00
2019-04-16T01:00:08.796Z,6.00
2019-04-16T01:03:12.252Z,6.00
2019-04-16T01:06:15.700Z,6.00
2019-04-16T01:09:19.149Z,6.00
2019-04-16T01:12:22.603Z,6.00
2019-04-16T01:15:26.054Z,5.90
2019-04-16T01:18:29.766Z,6.00
2019-04-16T01:21:33.226Z,6.00
2019-04-16T01:24:36.687Z,6.00
2019-04-16T01:27:41.794Z,6.00
2019-04-16T01:31:07.109Z,6.00
2019-04-16T01:34:10.018Z,6.00
2019-04-16T01:37:32.885Z,5.90
2019-04-16T01:40:50.120Z,5.90
2019-04-16T01:43:54.306Z,5.80
2019-04-16T01:46:57.804Z,5.80
2019-04-16T01:50:01.498Z,5.80
2019-04-16T01:53:04.958Z,5.70
2019-04-16T01:56:08.423Z,5.60
2019-04-16T01:59:11.878Z,5.60
2019-04-16T02:02:15.986Z,5.60
2019-04-16T02:05:20.410Z,5.50
2019-04-16T02:08:24.651Z,5.50
2019-04-16T02:11:28.106Z,5.50
2019-04-16T02:14:31.575Z,5.50
2019-04-16T02:17:35.035Z,5.40
2019-04-16T02:20:39.317Z,5.40
2019-04-16T02:23:45.346Z,5.40
2019-04-16T02:26:48.395Z,5.40
2019-04-16T02:29:53.695Z,5.30
2019-04-16T02:32:57.011Z,5.30
2019-04-16T02:36:00.609Z,5.20
2019-04-16T02:39:07.670Z,5.20
2019-04-16T02:42:11.120Z,5.20
2019-04-16T02:45:14.658Z,5.20
2019-04-16T02:48:18.105Z,5.20
2019-04-16T02:51:26.153Z,5.20
2019-04-16T02:54:33.961Z,5.20
2019-04-16T02:57:59.560Z,5.20
2019-04-16T03:01:20.914Z,5.20
2019-04-16T03:04:32.126Z,5.10
2019-04-16T03:07:35.588Z,5.10
2019-04-16T03:10:41.891Z,5.20
2019-04-16T03:13:44.305Z,5.20
2019-04-16T03:16:58.642Z,5.20
2019-04-16T03:20:03.730Z,5.10
2019-04-16T03:23:07.173Z,5.10
2019-04-16T03:26:10.641Z,5.10
2019-04-16T03:29:14.152Z,5.00
2019-04-16T03:32:17.611Z,5.00
2019-04-16T03:35:25.441Z,5.00
2019-04-16T03:38:26.250Z,5.00
2019-04-16T03:41:29.700Z,5.00
2019-04-16T03:44:33.477Z,4.90
2019-04-16T03:47:38.354Z,4.90
2019-04-16T03:50:41.866Z,4.90
2019-04-16T03:53:46.480Z,4.90
2019-04-16T03:56:50.507Z,4.90
2019-04-16T03:59:53.962Z,4.90
2019-04-16T04:02:57.401Z,4.90
2019-04-16T04:06:03.598Z,4.90
2019-04-16T04:09:06.403Z,5.00
2019-04-16T04:12:13.344Z,5.00
2019-04-16T04:15:15.074Z,4.90
2019-04-16T04:18:18.542Z,4.90
2019-04-16T04:21:22.648Z,4.90
2019-04-16T04:24:28.545Z,4.90
2019-04-16T04:27:31.426Z,4.80
2019-04-16T04:30:34.867Z,4.90
2019-04-16T04:33:41.601Z,4.90
2019-04-16T04:36:43.506Z,4.90
2019-04-16T04:39:47.045Z,4.90
2019-04-16T04:42:50.493Z,4.90
2019-04-16T04:45:53.966Z,4.80
2019-04-16T04:49:00.232Z,4.80
2019-04-16T04:52:02.610Z,4.80
2019-04-16T04:55:06.394Z,4.80
2019-04-16T04:58:09.851Z,4.90
2019-04-16T05:01:14.237Z,4.90
2019-04-16T05:04:21.023Z,4.90
2019-04-16T05:07:25.683Z,5.00
2019-04-16T05:10:29.879Z,5.00
2019-04-16T05:13:33.423Z,5.00
2019-04-16T05:16:36.850Z,5.00
2019-04-16T05:19:40.306Z,5.10
2019-04-16T05:22:43.754Z,5.20
2019-04-16T05:25:47.217Z,5.30
2019-04-16T05:28:50.660Z,5.30
2019-04-16T05:31:54.505Z,5.40
2019-04-16T05:34:59.278Z,5.40
2019-04-16T05:38:02.729Z,5.50
2019-04-16T05:41:13.067Z,5.60
2019-04-16T05:44:11.366Z,6.50
2019-04-16T05:47:18.073Z,8.30
2019-04-16T05:50:20.018Z,10.10
2019-04-16T05:53:23.510Z,11.30
2019-04-16T05:56:37.907Z,12.40
2019-04-16T05:59:41.350Z,12.70
2019-04-16T06:02:49.621Z,13.40
2019-04-16T06:05:49.998Z,13.50
2019-04-16T06:08:56.053Z,13.80
2019-04-16T06:11:58.730Z,14.20
2019-04-16T06:15:12.726Z,14.40
2019-04-16T06:18:37.916Z,14.70
2019-04-16T06:21:43.937Z,14.80
2019-04-16T06:25:09.326Z,15.30
2019-04-16T06:28:28.312Z,16.30
2019-04-16T06:31:40.131Z,17.00
2019-04-16T06:34:45.231Z,16.60
2019-04-16T06:37:50.333Z,16.50
2019-04-16T06:41:04.404Z,16.20
2019-04-16T06:44:12.518Z,16.30
2019-04-16T06:47:33.861Z,16.80
2019-04-16T06:50:45.026Z,16.80
2019-04-16T06:54:06.878Z,17.50
2019-04-16T06:57:21.214Z,17.40
2019-04-16T07:00:38.171Z,17.10
2019-04-16T07:03:49.505Z,17.00
2019-04-16T07:07:11.263Z,16.80
2019-04-16T07:10:16.366Z,17.10
2019-04-16T07:13:19.822Z,17.70
2019-04-16T07:16:28.142Z,18.10
2019-04-16T07:19:28.542Z,18.30
2019-04-16T07:22:32.168Z,18.40
2019-04-16T07:25:41.583Z,18.60
2019-04-16T07:28:48.838Z,18.80
2019-04-16T07:31:54.277Z,19.00
2019-04-16T07:35:08.874Z,18.50
2019-04-16T07:38:14.026Z,18.00
2019-04-16T07:41:19.133Z,18.10
2019-04-16T07:44:33.019Z,18.60
2019-04-16T07:47:44.090Z,19.10
2019-04-16T07:51:01.842Z,18.90
2019-04-16T07:54:08.006Z,18.90
2019-04-16T07:57:11.474Z,19.10
2019-04-16T08:00:15.262Z,18.90
2019-04-16T08:03:18.722Z,18.90
2019-04-16T08:06:22.166Z,19.10
2019-04-16T08:09:28.959Z,19.20
2019-04-16T08:12:31.147Z,18.90
2019-04-16T08:15:34.738Z,18.80
2019-04-16T08:18:39.839Z,17.90
2019-04-16T08:21:44.355Z,17.90
2019-04-16T08:24:49.828Z,17.90
2019-04-16T08:27:53.998Z,18.00
2019-04-16T08:30:58.589Z,17.80
2019-04-16T08:34:02.211Z,17.60
2019-04-16T08:37:08.123Z,17.00
2019-04-16T08:40:12.482Z,17.00
2019-04-16T08:43:16.251Z,16.90
2019-04-16T08:46:19.703Z,17.00
2019-04-16T08:49:23.169Z,16.30
2019-04-16T08:52:26.614Z,16.00
2019-04-16T08:55:30.083Z,16.10
2019-04-16T08:58:35.711Z,15.80
2019-04-16T09:01:38.739Z,15.90
2019-04-16T09:04:42.178Z,16.20
2019-04-16T09:07:50.652Z,16.60
2019-04-16T09:10:50.843Z,16.90
2019-04-16T09:14:04.127Z,16.50
2019-04-16T09:17:11.909Z,16.30
2019-04-16T09:20:26.079Z,16.20
2019-04-16T09:23:29.551Z,15.90
2019-04-16T09:26:37.565Z,15.40
2019-04-16T09:29:45.335Z,15.00
2019-04-16T09:33:00.409Z,14.70
2019-04-16T09:36:09.157Z,14.50
2019-04-16T09:39:30.906Z,14.40
2019-04-16T09:42:35.447Z,14.40
2019-04-16T09:45:38.910Z,14.30
2019-04-16T09:48:42.363Z,14.30
2019-04-16T09:51:45.834Z,14.40
2019-04-16T09:54:49.310Z,14.20
2019-04-16T09:57:52.794Z,14.20
2019-04-16T10:01:06.998Z,14.50
2019-04-16T10:04:14.947Z,14.70
2019-04-16T10:07:18.390Z,14.80
2019-04-16T10:10:24.016Z,14.70
2019-04-16T10:13:32.780Z,14.80
2019-04-16T10:16:32.245Z,14.70
2019-04-16T10:19:35.846Z,14.60
2019-04-16T10:22:39.319Z,14.70
2019-04-16T10:25:42.855Z,14.90
2019-04-16T10:28:47.750Z,14.90
2019-04-16T10:31:51.810Z,14.80
2019-04-16T10:34:55.307Z,14.60
2019-04-16T10:38:00.421Z,14.50
2019-04-16T10:41:08.499Z,14.50
2019-04-16T10:44:19.717Z,14.40
2019-04-16T10:47:43.711Z,14.40
2019-04-16T10:50:48.824Z,14.50
2019-04-16T10:54:00.088Z,14.70
2019-04-16T10:57:20.531Z,14.60
2019-04-16T11:00:25.697Z,14.50
2019-04-16T11:03:46.075Z,14.40
2019-04-16T11:06:51.230Z,14.40
2019-04-16T11:09:54.707Z,14.30
2019-04-16T11:12:58.222Z,14.50
2019-04-16T11:16:03.359Z,14.40
2019-04-16T11:19:06.857Z,14.40
2019-04-16T11:22:10.374Z,14.20
2019-04-16T11:25:14.006Z,14.10
2019-04-16T11:28:17.511Z,14.00
2019-04-16T11:31:22.641Z,14.10
2019-04-16T11:34:26.145Z,14.10
2019-04-16T11:37:34.269Z,14.30
2019-04-16T11:40:34.803Z,14.30
2019-04-16T11:43:38.342Z,14.20
2019-04-16T11:46:41.864Z,14.20
2019-04-16T11:49:45.426Z,14.30
2019-04-16T11:52:48.969Z,14.30
2019-04-16T11:55:52.485Z,14.30
2019-04-16T11:58:57.563Z,14.20
2019-04-16T12:02:11.794Z,14.10
2019-04-16T12:05:17.169Z,14.20
2019-04-16T12:08:22.373Z,14.30
2019-04-16T12:11:42.745Z,14.20
2019-04-16T12:14:47.881Z,14.20
2019-04-16T12:17:56.011Z,14.20
2019-04-16T12:21:03.889Z,14.20
2019-04-16T12:24:20.979Z,14.20
2019-04-16T12:27:32.384Z,14.20
2019-04-16T12:30:52.441Z,14.30
2019-04-16T12:34:06.490Z,14.30
2019-04-16T12:37:14.395Z,14.30
2019-04-16T12:40:21.130Z,14.30
2019-04-16T12:43:32.299Z,14.30
2019-04-16T12:46:49.414Z,14.40
2019-04-16T12:49:57.203Z,14.50
2019-04-16T12:53:02.317Z,14.50
2019-04-16T12:56:09.934Z,14.50
2019-04-16T12:59:15.204Z,14.50
2019-04-16T13:02:26.317Z,14.50
2019-04-16T13:05:31.438Z,14.50
2019-04-16T13:08:39.250Z,14.40
2019-04-16T13:11:44.362Z,14.40
2019-04-16T13:15:06.329Z,14.40
2019-04-16T13:18:17.797Z,14.50
2019-04-16T13:21:22.894Z,14.50
2019-04-16T13:24:27.991Z,14.50
2019-04-16T13:27:36.009Z,14.50
2019-04-16T13:30:39.478Z,14.50
2019-04-16T13:33:43.533Z,14.50
2019-04-16T13:36:51.500Z,14.50
2019-04-16T13:39:54.958Z,14.50
2019-04-16T13:43:01.526Z,14.50
2019-04-16T13:46:03.608Z,14.60
2019-04-16T13:49:08.837Z,14.60
2019-04-16T13:52:12.430Z,14.70
2019-04-16T13:55:26.579Z,14.60
2019-04-16T13:58:37.663Z,14.60
2019-04-16T14:01:45.949Z,14.70
2019-04-16T14:04:48.177Z,14.70
2019-04-16T14:07:51.645Z,14.70
2019-04-16T14:10:55.122Z,14.60
2019-04-16T14:13:58.565Z,14.60
2019-04-16T14:17:09.386Z,14.50
2019-04-16T14:20:12.659Z,14.50
2019-04-16T14:23:13.845Z,14.60
2019-04-16T14:26:17.326Z,14.60
2019-04-16T14:29:20.770Z,14.60
2019-04-16T14:32:24.250Z,14.50
2019-04-16T14:35:33.571Z,14.60
2019-04-16T14:38:45.030Z,14.60
2019-04-16T14:41:49.929Z,14.70
2019-04-16T14:45:06.348Z,14.70
2019-04-16T14:48:08.637Z,14.60
2019-04-16T14:51:12.042Z,14.70
2019-04-16T14:54:26.114Z,14.70
2019-04-16T14:57:36.254Z,14.80
2019-04-16T15:00:41.374Z,14.70
2019-04-16T15:03:49.458Z,14.60
2019-04-16T15:07:06.858Z,14.60
2019-04-16T15:10:24.160Z,14.60
2019-04-16T15:13:35.334Z,14.60
2019-04-16T15:16:40.508Z,14.60
2019-04-16T15:20:02.075Z,14.50
2019-04-16T15:23:19.334Z,14.50
2019-04-16T15:26:24.442Z,14.50
2019-04-16T15:29:35.579Z,14.50
2019-04-16T15:32:43.384Z,14.50
2019-04-16T15:35:51.487Z,14.50
2019-04-16T15:39:11.549Z,14.40
2019-04-16T15:42:17.735Z,14.30
2019-04-16T15:45:41.338Z,14.30
2019-04-16T15:49:02.746Z,14.20
2019-04-16T15:52:10.984Z,14.20
2019-04-16T15:55:24.730Z,14.20
2019-04-16T15:58:38.733Z,14.20
2019-04-16T16:01:49.794Z,14.20
2019-04-16T16:04:54.991Z,14.20
2019-04-16T16:08:12.351Z,14.10
2019-04-16T16:11:26.662Z,14.00
2019-04-16T16:14:34.629Z,14.00
2019-04-16T16:17:35.416Z,13.90
2019-04-16T16:20:38.854Z,13.90
2019-04-16T16:23:42.344Z,13.90
2019-04-16T16:26:45.841Z,13.90
2019-04-16T16:29:49.326Z,13.80
2019-04-16T16:32:52.785Z,13.80
2019-04-16T16:35:58.867Z,13.80
2019-04-16T16:39:01.557Z,13.70
2019-04-16T16:42:05.124Z,13.70
2019-04-16T16:45:08.750Z,13.70
2019-04-16T16:48:14.098Z,13.60
2019-04-16T16:51:17.610Z,13.60
2019-04-16T16:54:22.693Z,13.60
2019-04-16T16:57:33.987Z,13.50
2019-04-16T17:00:59.456Z,13.50
2019-04-16T17:04:02.450Z,13.40
2019-04-16T17:07:06.158Z,13.40
2019-04-16T17:10:09.773Z,13.30
2019-04-16T17:13:14.603Z,13.20
2019-04-16T17:16:18.405Z,13.20
2019-04-16T17:19:21.881Z,13.20
2019-04-16T17:22:25.325Z,13.10
2019-04-16T17:25:36.072Z,13.00
2019-04-16T17:28:34.016Z,13.00
2019-04-16T17:31:37.471Z,13.00
2019-04-16T17:34:40.934Z,12.90
2019-04-16T17:37:44.414Z,12.90
2019-04-16T17:40:58.626Z,12.80
2019-04-16T17:44:03.552Z,12.70
2019-04-16T17:47:32.314Z,12.60
2019-04-16T17:50:46.939Z,12.60
2019-04-16T17:53:52.034Z,12.50
2019-04-16T17:57:00.098Z,12.40
2019-04-16T18:00:06.552Z,12.30
2019-04-16T18:03:26.863Z,12.20
2019-04-16T18:06:34.756Z,12.20
2019-04-16T18:09:45.935Z,12.10
2019-04-16T18:12:55.155Z,12.00
2019-04-16T18:16:19.856Z,12.00
2019-04-16T18:19:24.959Z,12.00
2019-04-16T18:22:30.203Z,12.00
2019-04-16T18:25:35.406Z,11.90
2019-04-16T18:28:46.486Z,11.90
2019-04-16T18:31:52.431Z,11.90
2019-04-16T18:35:16.145Z,11.90
2019-04-16T18:38:23.466Z,11.90
2019-04-16T18:41:34.551Z,11.80
2019-04-16T18:44:56.286Z,11.80
2019-04-16T18:48:13.158Z,11.70
2019-04-16T18:51:12.689Z,11.60
2019-04-16T18:54:16.137Z,11.60
2019-04-16T18:57:19.625Z,11.60
2019-04-16T19:00:31.924Z,11.70
2019-04-16T19:03:35.775Z,11.70
2019-04-16T19:06:39.214Z,11.70
2019-04-16T19:09:42.687Z,11.60
2019-04-16T19:12:46.140Z,11.60
2019-04-16T19:15:49.685Z,11.60
2019-04-16T19:18:53.201Z,11.60
2019-04-16T19:21:57.070Z,11.60
2019-04-16T19:25:00.517Z,11.60
2019-04-16T19:28:06.010Z,11.60
2019-04-16T19:31:09.181Z,11.50
2019-04-16T19:34:12.641Z,11.50
2019-04-16T19:37:16.106Z,11.50
2019-04-16T19:40:19.662Z,11.50
2019-04-16T19:43:23.130Z,11.40
2019-04-16T19:46:26.574Z,11.40
2019-04-16T19:49:30.038Z,11.40
2019-04-16T19:52:33.503Z,11.40
2019-04-16T19:55:36.954Z,11.30
2019-04-16T19:58:40.422Z,11.20
2019-04-16T20:01:44.247Z,11.20
2019-04-16T20:04:50.659Z,11.10
2019-04-16T20:07:53.133Z,11.00
2019-04-16T20:10:56.750Z,11.00
2019-04-16T20:14:02.692Z,11.00
2019-04-16T20:17:05.417Z,10.90
2019-04-16T20:20:08.955Z,10.90
2019-04-16T20:23:12.406Z,10.90
2019-04-16T20:26:15.874Z,10.80
2019-04-16T20:29:19.327Z,10.80
2019-04-16T20:32:23.841Z,10.70
2019-04-16T20:35:27.310Z,10.60
2019-04-16T20:38:30.754Z,10.60
2019-04-16T20:41:34.226Z,10.50
2019-04-16T20:44:37.699Z,10.50
2019-04-16T20:47:41.157Z,10.40
2019-04-16T20:50:44.630Z,10.40
2019-04-16T20:53:48.165Z,10.40
2019-04-16T20:56:53.237Z,10.40
2019-04-16T20:59:56.806Z,10.40
2019-04-16T21:03:02.570Z,10.30
2019-04-16T21:06:07.842Z,10.30
2019-04-16T21:09:10.679Z,10.20
2019-04-16T21:12:14.129Z,10.20
2019-04-16T21:15:17.603Z,10.20
2019-04-16T21:18:21.071Z,10.10
2019-04-16T21:21:24.518Z,10.20
2019-04-16T21:24:27.999Z,10.20
2019-04-16T21:27:33.082Z,10.20
2019-04-16T21:30:36.810Z,10.20
2019-04-16T21:33:49.263Z,10.10
2019-04-16T21:36:55.111Z,10.20
2019-04-16T21:40:03.246Z,10.20
2019-04-16T21:43:08.236Z,10.20
2019-04-16T21:46:11.994Z,10.20
2019-04-16T21:49:15.457Z,10.30
2019-04-16T21:52:18.914Z,10.20
2019-04-16T21:55:22.385Z,10.20
2019-04-16T21:58:25.844Z,10.20
2019-04-16T22:01:36.717Z,10.20
2019-04-16T22:04:42.647Z,10.10
2019-04-16T22:07:45.530Z,10.20
2019-04-16T22:10:48.982Z,10.20
2019-04-16T22:13:52.454Z,10.10
2019-04-16T22:16:56.000Z,10.20
2019-04-16T22:20:03.624Z,10.20
2019-04-16T22:23:04.975Z,10.20
2019-04-16T22:26:10.794Z,10.10
2019-04-16T22:29:15.648Z,10.20
2019-04-16T22:32:18.846Z,10.10
2019-04-16T22:35:22.309Z,10.10
2019-04-16T22:38:26.634Z,10.10
2019-04-16T22:41:46.654Z,10.10
2019-04-16T22:45:08.571Z,10.10
2019-04-16T22:48:12.104Z,10.00
2019-04-16T22:51:15.566Z,10.00
2019-04-16T22:54:20.878Z,10.00
2019-04-16T22:57:24.207Z,9.90
2019-04-16T23:00:29.314Z,9.90
2019-04-16T23:03:32.763Z,9.80
2019-04-16T23:06:38.676Z,9.80
2019-04-16T23:09:41.397Z,9.80
2019-04-16T23:12:44.862Z,9.80
2019-04-16T23:15:48.333Z,9.70
2019-04-16T23:18:51.771Z,9.70
2019-04-16T23:21:55.234Z,9.60
2019-04-16T23:24:58.702Z,9.60
2019-04-16T23:28:02.146Z,9.60
2019-04-16T23:31:05.681Z,9.50
2019-04-16T23:34:09.131Z,9.50
2019-04-16T23:37:12.602Z,9.40
2019-04-16T23:40:16.050Z,9.40
2019-04-16T23:43:30.446Z,9.40
2019-04-16T23:46:37.822Z,9.30
2019-04-16T23:49:58.352Z,9.20
2019-04-16T23:53:08.739Z,9.10
2019-04-16T23:56:17.767Z,9.10
2019-04-16T23:59:26.734Z,9.10
